createdAt,value
2022-09-17T00:01:20.408Z,13.33
2022-09-17T00:03:59.295Z,14.33
2022-09-17T00:06:26.720Z,16.30
2022-09-17T00:08:54.694Z,11.30
2022-09-17T00:11:25.287Z,13.33
2022-09-17T00:13:53.834Z,18.67
2022-09-17T00:16:38.882Z,12.20
2022-09-17T00:19:07.282Z,13.53
2022-09-17T00:21:34.278Z,13.70
2022-09-17T00:24:04.353Z,12.47
2022-09-17T00:26:32.723Z,11.40
2022-09-17T00:29:03.259Z,12.43
2022-09-17T00:31:31.082Z,12.67
2022-09-17T00:34:02.295Z,14.90
2022-09-17T00:36:29.723Z,15.70
2022-09-17T00:38:59.010Z,15.30
2022-09-17T00:41:31.000Z,14.37
2022-09-17T00:44:00.957Z,13.50
2022-09-17T00:46:42.213Z,15.30
2022-09-17T00:49:20.311Z,14.80
2022-09-17T00:52:00.498Z,9.93
2022-09-17T00:54:28.842Z,14.77
2022-09-17T00:56:57.076Z,12.90
2022-09-17T00:59:24.274Z,16.70
2022-09-17T01:01:51.395Z,13.43
2022-09-17T01:04:20.154Z,12.83
2022-09-17T01:07:17.807Z,12.17
2022-09-17T01:10:07.901Z,19.47
2022-09-17T01:12:46.433Z,19.47
2022-09-17T01:15:26.181Z,16.57
2022-09-17T01:18:25.874Z,14.00
2022-09-17T01:21:13.754Z,15.17
2022-09-17T01:23:46.559Z,12.53
2022-09-17T01:26:36.584Z,17.53
2022-09-17T01:29:22.081Z,17.83
2022-09-17T01:37:43.959Z,16.63
2022-09-17T01:40:56.506Z,12.50
2022-09-17T01:43:50.490Z,16.47
2022-09-17T01:46:49.909Z,13.23
2022-09-17T01:49:27.555Z,17.60
2022-09-17T01:51:57.444Z,16.20
2022-09-17T01:54:41.803Z,13.30
2022-09-17T01:57:20.683Z,15.07
2022-09-17T01:59:58.741Z,15.07
2022-09-17T02:02:37.663Z,17.30
2022-09-17T02:05:21.230Z,15.87
2022-09-17T02:07:57.236Z,11.80
2022-09-17T02:10:29.331Z,14.73
2022-09-17T02:13:12.222Z,21.47
2022-09-17T02:15:47.846Z,14.93
2022-09-17T02:18:19.033Z,17.67
2022-09-17T02:20:52.943Z,15.27
2022-09-17T02:23:29.126Z,10.30
2022-09-17T02:26:10.164Z,13.20
2022-09-17T02:29:01.502Z,12.97
2022-09-17T02:31:28.939Z,12.17
2022-09-17T02:36:42.729Z,16.23
2022-09-17T02:39:10.133Z,16.73
2022-09-17T02:41:42.886Z,15.20
2022-09-17T02:44:39.930Z,14.23
2022-09-17T02:47:35.113Z,16.50
2022-09-17T02:50:44.006Z,11.37
2022-09-17T02:53:29.028Z,17.37
2022-09-17T02:56:15.882Z,16.83
2022-09-17T02:58:56.435Z,12.17
2022-09-17T03:01:35.220Z,16.80
2022-09-17T03:04:05.006Z,14.67
2022-09-17T03:06:38.675Z,22.67
2022-09-17T03:09:05.781Z,14.73
2022-09-17T03:11:33.739Z,10.80
2022-09-17T03:14:06.340Z,16.57
2022-09-17T03:16:34.397Z,23.27
2022-09-17T03:19:04.441Z,22.40
2022-09-17T03:21:32.069Z,15.43
2022-09-17T03:26:51.201Z,16.33
2022-09-17T03:29:20.331Z,16.97
2022-09-17T03:31:49.759Z,16.20
2022-09-17T03:37:00.236Z,15.97
2022-09-17T03:39:27.754Z,10.10
2022-09-17T03:41:59.141Z,11.87
2022-09-17T03:44:27.914Z,16.10
2022-09-17T03:46:55.744Z,14.93
2022-09-17T03:49:25.095Z,14.97
2022-09-17T03:51:55.145Z,10.40
2022-09-17T03:54:25.318Z,12.77
2022-09-17T03:56:54.014Z,16.73
2022-09-17T03:59:21.646Z,10.33
2022-09-17T04:01:50.348Z,20.47
2022-09-17T04:07:01.273Z,15.03
2022-09-17T04:09:30.843Z,13.03
2022-09-17T04:12:01.905Z,11.60
2022-09-17T04:14:31.723Z,12.67
2022-09-17T04:17:36.481Z,15.23
2022-09-17T04:20:07.586Z,17.90
2022-09-17T04:22:38.066Z,18.37
2022-09-17T04:25:06.949Z,14.27
2022-09-17T04:27:35.074Z,15.07
2022-09-17T04:30:09.882Z,12.03
2022-09-17T04:32:37.133Z,14.57
2022-09-17T04:35:04.765Z,13.47
2022-09-17T04:37:32.215Z,16.13
2022-09-17T04:39:59.233Z,12.47
2022-09-17T04:42:26.357Z,12.97
2022-09-17T04:44:55.667Z,15.63
2022-09-17T04:50:18.537Z,11.40
2022-09-17T04:52:51.417Z,12.90
2022-09-17T04:55:22.039Z,12.33
2022-09-17T04:57:55.083Z,15.93
2022-09-17T05:00:30.976Z,16.10
2022-09-17T05:03:00.652Z,15.03
2022-09-17T05:05:29.289Z,16.63
2022-09-17T05:07:56.816Z,10.53
2022-09-17T05:10:24.943Z,10.40
2022-09-17T05:12:56.607Z,15.47
2022-09-17T05:15:27.298Z,10.93
2022-09-17T05:17:57.805Z,10.67
2022-09-17T05:20:25.009Z,11.17
2022-09-17T05:22:52.998Z,9.33
2022-09-17T05:25:31.361Z,14.47
2022-09-17T05:27:58.408Z,8.67
2022-09-17T05:30:26.103Z,13.97
2022-09-17T05:33:03.414Z,10.67
2022-09-17T05:35:31.831Z,11.97
2022-09-17T05:38:03.840Z,13.43
2022-09-17T05:40:34.973Z,9.40
2022-09-17T05:43:06.523Z,10.27
2022-09-17T05:45:35.678Z,13.90
2022-09-17T05:51:22.546Z,10.60
2022-09-17T05:53:52.021Z,12.93
2022-09-17T05:56:19.725Z,13.93
2022-09-17T05:58:55.762Z,7.27
2022-09-17T06:01:24.087Z,5.70
2022-09-17T06:03:52.883Z,9.47
2022-09-17T06:06:20.661Z,14.03
2022-09-17T06:08:47.954Z,9.43
2022-09-17T06:11:24.686Z,11.83
2022-09-17T06:13:58.610Z,12.53
2022-09-17T06:16:29.500Z,9.43
2022-09-17T06:18:57.380Z,9.17
2022-09-17T06:21:35.900Z,6.53
2022-09-17T06:24:03.706Z,8.57
2022-09-17T06:26:31.244Z,10.47
2022-09-17T06:29:00.587Z,12.77
2022-09-17T06:31:28.026Z,8.10
2022-09-17T06:34:01.697Z,8.17
2022-09-17T06:36:29.436Z,12.13
2022-09-17T06:38:56.661Z,13.57
2022-09-17T06:41:24.277Z,7.60
2022-09-17T06:43:55.059Z,9.53
2022-09-17T06:46:22.314Z,9.63
2022-09-17T06:48:52.403Z,17.27
2022-09-17T06:51:19.988Z,7.77
2022-09-17T06:53:47.872Z,9.80
2022-09-17T06:56:15.786Z,8.80
2022-09-17T06:58:44.322Z,7.30
2022-09-17T07:01:12.917Z,8.60
2022-09-17T07:03:45.283Z,5.23
2022-09-17T07:06:15.818Z,9.67
2022-09-17T07:08:47.561Z,6.80
2022-09-17T07:11:16.334Z,7.27
2022-09-17T07:13:43.801Z,7.27
2022-09-17T07:16:13.183Z,7.53
2022-09-17T07:18:40.299Z,8.10
2022-09-17T07:21:08.110Z,8.70
2022-09-17T07:23:37.120Z,8.77
2022-09-17T07:26:12.360Z,13.00
2022-09-17T07:28:40.575Z,6.70
2022-09-17T07:31:12.407Z,6.93
2022-09-17T07:33:42.472Z,5.00
2022-09-17T07:36:12.559Z,7.77
2022-09-17T07:38:39.725Z,5.57
2022-09-17T07:41:12.599Z,6.40
2022-09-17T07:43:40.219Z,8.63
2022-09-17T07:46:10.255Z,7.60
2022-09-17T07:48:37.137Z,8.03
2022-09-17T07:51:04.069Z,6.17
2022-09-17T07:53:30.936Z,10.53
2022-09-17T07:55:59.886Z,6.03
2022-09-17T07:58:33.623Z,8.57
2022-09-17T08:01:07.095Z,7.37
2022-09-17T08:03:37.529Z,8.73
2022-09-17T08:06:07.067Z,8.57
2022-09-17T08:08:35.911Z,11.57
2022-09-17T08:11:04.607Z,7.77
2022-09-17T08:13:31.602Z,9.33
2022-09-17T08:16:06.827Z,6.77
2022-09-17T08:18:35.697Z,11.17
2022-09-17T08:21:04.801Z,7.83
2022-09-17T08:23:32.352Z,11.33
2022-09-17T08:26:00.603Z,4.20
2022-09-17T08:28:30.867Z,7.17
2022-09-17T08:31:09.090Z,8.00
2022-09-17T08:33:38.038Z,9.57
2022-09-17T08:36:06.016Z,7.40
2022-09-17T08:38:38.092Z,7.87
2022-09-17T08:41:11.516Z,5.47
2022-09-17T08:43:56.942Z,7.57
2022-09-17T08:46:25.716Z,3.37
2022-09-17T08:49:01.564Z,4.63
2022-09-17T08:51:42.917Z,5.77
2022-09-17T08:54:21.374Z,7.03
2022-09-17T08:56:59.909Z,8.20
2022-09-17T08:59:34.913Z,3.63
2022-09-17T09:02:17.057Z,5.37
2022-09-17T09:05:10.496Z,3.73
2022-09-17T09:07:43.668Z,6.33
2022-09-17T09:10:18.150Z,5.53
2022-09-17T09:12:46.370Z,6.20
2022-09-17T09:15:36.671Z,5.63
2022-09-17T09:18:26.003Z,4.53
2022-09-17T09:21:12.579Z,5.67
2022-09-17T09:23:59.053Z,4.93
2022-09-17T09:26:47.937Z,3.30
2022-09-17T09:30:02.254Z,5.77
2022-09-17T09:32:31.943Z,6.53
2022-09-17T09:35:02.487Z,4.43
2022-09-17T09:37:34.684Z,4.10
2022-09-17T09:40:22.426Z,7.50
2022-09-17T09:42:53.993Z,4.67
2022-09-17T09:45:54.291Z,5.10
2022-09-17T09:48:29.559Z,8.03
2022-09-17T09:51:25.443Z,3.67
2022-09-17T09:54:14.163Z,5.40
2022-09-17T09:56:59.196Z,4.00
2022-09-17T09:59:26.929Z,2.90
2022-09-17T10:01:54.017Z,4.10
2022-09-17T10:04:24.822Z,2.53
2022-09-17T10:06:54.176Z,2.67
2022-09-17T10:09:22.772Z,2.43
2022-09-17T10:12:08.566Z,2.80
2022-09-17T10:14:37.345Z,1.97
2022-09-17T10:17:24.127Z,2.53
2022-09-17T10:20:00.295Z,2.30
2022-09-17T10:22:33.749Z,2.40
2022-09-17T10:25:02.372Z,3.83
2022-09-17T10:27:30.317Z,3.27
2022-09-17T10:30:15.989Z,3.70
2022-09-17T10:32:43.334Z,2.77
2022-09-17T10:35:16.385Z,5.53
2022-09-17T10:37:49.030Z,2.40
2022-09-17T10:40:19.054Z,4.47
2022-09-17T10:42:46.723Z,6.90
2022-09-17T10:45:28.890Z,6.03
2022-09-17T10:47:58.428Z,5.33
2022-09-17T10:50:31.228Z,3.50
2022-09-17T10:53:05.858Z,4.10
2022-09-17T10:55:45.793Z,1.53
2022-09-17T10:58:30.002Z,4.20
2022-09-17T11:01:24.428Z,3.53
2022-09-17T11:04:21.714Z,2.23
2022-09-17T11:06:51.367Z,3.27
2022-09-17T11:09:41.554Z,3.87
2022-09-17T11:12:24.170Z,2.10
2022-09-17T11:15:02.703Z,5.10
2022-09-17T11:18:07.949Z,4.17
2022-09-17T11:20:53.421Z,6.47
2022-09-17T11:23:20.666Z,4.50
2022-09-17T11:25:57.173Z,4.03
2022-09-17T11:28:48.188Z,3.90
2022-09-17T11:31:34.865Z,6.53
2022-09-17T11:34:23.102Z,1.70
2022-09-17T11:37:03.128Z,2.90
2022-09-17T11:39:50.257Z,5.20
2022-09-17T11:42:22.307Z,4.00
2022-09-17T11:44:58.107Z,5.20
2022-09-17T11:47:44.492Z,5.90
2022-09-17T11:50:30.170Z,7.23
2022-09-17T11:53:25.093Z,5.53
2022-09-17T11:55:57.846Z,4.80
2022-09-17T11:58:45.807Z,2.57
2022-09-17T12:01:18.654Z,3.77
2022-09-17T12:04:01.799Z,4.30
2022-09-17T12:06:42.234Z,3.67
2022-09-17T12:09:26.853Z,6.17
2022-09-17T12:12:48.249Z,4.57
2022-09-17T12:15:20.380Z,3.33
2022-09-17T12:18:34.030Z,5.60
2022-09-17T12:21:04.697Z,3.27
2022-09-17T12:23:38.825Z,2.83
2022-09-17T12:26:14.283Z,2.03
2022-09-17T12:29:21.646Z,1.83
2022-09-17T12:32:00.049Z,3.50
2022-09-17T12:34:35.763Z,3.30
2022-09-17T12:37:17.966Z,2.57
2022-09-17T12:40:00.575Z,3.97
2022-09-17T12:42:40.438Z,5.43
2022-09-17T12:45:25.488Z,3.17
2022-09-17T12:48:25.630Z,2.93
2022-09-17T12:50:52.387Z,3.00
2022-09-17T12:53:22.701Z,3.10
2022-09-17T12:56:31.368Z,4.37
2022-09-17T12:59:09.361Z,4.77
2022-09-17T13:02:01.169Z,4.60
2022-09-17T13:05:00.145Z,5.27
2022-09-17T13:08:04.134Z,5.77
2022-09-17T13:10:59.853Z,3.00
2022-09-17T13:13:59.057Z,6.03
2022-09-17T13:16:30.439Z,6.03
2022-09-17T13:19:17.021Z,9.73
2022-09-17T13:22:03.976Z,9.00
2022-09-17T13:24:31.852Z,39.10
2022-09-17T13:27:01.349Z,5.00
2022-09-17T13:29:46.967Z,4.63
2022-09-17T13:32:35.656Z,6.80
2022-09-17T13:35:22.456Z,4.20
2022-09-17T13:37:52.709Z,3.90
2022-09-17T13:40:22.880Z,4.70
2022-09-17T13:42:55.824Z,9.57
2022-09-17T13:45:24.440Z,3.60
2022-09-17T13:48:02.769Z,6.13
2022-09-17T13:50:33.969Z,5.00
2022-09-17T13:53:09.248Z,5.20
2022-09-17T13:55:58.747Z,7.03
2022-09-17T13:58:31.856Z,4.90
2022-09-17T14:00:59.991Z,3.33
2022-09-17T14:03:37.306Z,4.13
2022-09-17T14:06:14.781Z,3.80
2022-09-17T14:08:44.772Z,6.97
2022-09-17T14:11:23.706Z,3.97
2022-09-17T14:14:03.439Z,6.07
2022-09-17T14:16:40.531Z,5.53
2022-09-17T14:19:17.089Z,8.03
2022-09-17T14:22:06.045Z,8.07
2022-09-17T14:24:45.007Z,5.87
2022-09-17T14:27:29.845Z,6.13
2022-09-17T14:30:18.126Z,7.03
2022-09-17T14:32:57.563Z,6.93
2022-09-17T14:35:44.015Z,6.70
2022-09-17T14:38:37.361Z,10.13
2022-09-17T14:41:20.247Z,8.47
2022-09-17T14:44:19.857Z,5.67
2022-09-17T14:46:58.099Z,5.93
2022-09-17T14:49:31.162Z,5.10
2022-09-17T14:51:59.029Z,6.53
2022-09-17T14:54:28.256Z,6.63
2022-09-17T14:57:19.746Z,10.73
2022-09-17T14:59:55.755Z,5.87
2022-09-17T15:02:30.323Z,8.43
2022-09-17T15:04:57.740Z,5.27
2022-09-17T15:07:25.847Z,7.33
2022-09-17T15:09:55.401Z,6.23
2022-09-17T15:12:27.612Z,5.67
2022-09-17T15:14:56.407Z,9.97
2022-09-17T15:17:23.903Z,8.93
2022-09-17T15:19:54.777Z,9.10
2022-09-17T15:22:30.210Z,7.33
2022-09-17T15:25:27.724Z,10.60
2022-09-17T15:27:58.421Z,7.90
2022-09-17T15:30:25.992Z,7.47
2022-09-17T15:33:01.156Z,9.93
2022-09-17T15:35:30.570Z,8.43
2022-09-17T15:38:26.404Z,6.77
2022-09-17T15:40:54.134Z,6.97
2022-09-17T15:43:33.192Z,11.10
2022-09-17T15:46:23.722Z,7.40
2022-09-17T15:48:50.878Z,5.63
2022-09-17T15:51:30.704Z,2.50
2022-09-17T15:54:00.188Z,5.57
2022-09-17T15:56:31.481Z,4.47
2022-09-17T15:59:04.803Z,3.40
2022-09-17T16:01:39.085Z,8.50
2022-09-17T16:04:18.834Z,4.97
2022-09-17T16:06:58.652Z,4.87
2022-09-17T16:09:37.859Z,5.07
2022-09-17T16:12:04.931Z,4.17
2022-09-17T16:14:31.917Z,7.03
2022-09-17T16:16:59.784Z,7.30
2022-09-17T16:19:26.781Z,7.60
2022-09-17T16:21:53.645Z,5.33
2022-09-17T16:24:20.596Z,7.53
2022-09-17T16:26:47.413Z,6.17
2022-09-17T16:29:17.568Z,3.93
2022-09-17T16:31:45.048Z,4.10
2022-09-17T16:34:12.022Z,6.30
2022-09-17T16:36:39.387Z,6.50
2022-09-17T16:39:06.319Z,7.17
2022-09-17T16:41:33.212Z,8.53
2022-09-17T16:44:00.229Z,6.00
2022-09-17T16:46:27.149Z,4.87
2022-09-17T16:48:54.084Z,7.27
2022-09-17T16:51:20.979Z,5.47
2022-09-17T16:53:47.851Z,2.57
2022-09-17T16:56:15.685Z,3.70
2022-09-17T16:58:42.661Z,5.50
2022-09-17T17:01:11.577Z,6.33
2022-09-17T17:03:38.839Z,3.93
2022-09-17T17:06:05.929Z,4.10
2022-09-17T17:08:33.808Z,5.03
2022-09-17T17:11:01.213Z,3.33
2022-09-17T17:13:28.239Z,3.60
2022-09-17T17:15:55.409Z,3.13
2022-09-17T17:18:23.373Z,5.57
2022-09-17T17:20:50.509Z,4.10
2022-09-17T17:23:17.766Z,3.27
2022-09-17T17:25:44.631Z,4.77
2022-09-17T17:28:11.612Z,6.97
2022-09-17T17:30:38.642Z,5.57
2022-09-17T17:33:05.573Z,4.30
2022-09-17T17:35:32.739Z,6.33
2022-09-17T17:37:59.594Z,6.70
2022-09-17T17:40:26.825Z,4.57
2022-09-17T17:42:54.563Z,4.27
2022-09-17T17:45:21.898Z,5.70
2022-09-17T17:47:49.007Z,2.20
2022-09-17T17:50:16.078Z,5.60
2022-09-17T17:52:48.098Z,4.00
2022-09-17T17:55:15.999Z,6.70
2022-09-17T17:57:42.941Z,4.47
2022-09-17T18:00:12.468Z,6.23
2022-09-17T18:02:40.154Z,4.80
2022-09-17T18:05:07.556Z,7.93
2022-09-17T18:07:34.756Z,5.73
2022-09-17T18:10:01.657Z,5.50
2022-09-17T18:12:28.508Z,5.60
2022-09-17T18:14:55.408Z,7.50
2022-09-17T18:17:22.266Z,6.37
2022-09-17T18:19:49.223Z,8.70
2022-09-17T18:22:16.301Z,6.50
2022-09-17T18:24:43.149Z,5.70
2022-09-17T18:27:10.389Z,6.80
2022-09-17T18:29:37.353Z,7.03
2022-09-17T18:32:04.257Z,4.77
2022-09-17T18:34:32.295Z,8.27
2022-09-17T18:36:59.124Z,6.90
2022-09-17T18:39:57.388Z,8.53
2022-09-17T18:42:13.088Z,5.43
2022-09-17T18:44:39.950Z,7.17
2022-09-17T18:47:06.917Z,8.17
2022-09-17T18:49:33.846Z,9.33
2022-09-17T18:52:00.682Z,8.23
2022-09-17T18:54:27.512Z,7.53
2022-09-17T18:56:54.368Z,6.57
2022-09-17T18:59:21.471Z,8.97
2022-09-17T19:01:49.155Z,10.10
2022-09-17T19:04:16.052Z,9.27
2022-09-17T19:06:43.024Z,9.57
2022-09-17T19:09:11.607Z,7.33
2022-09-17T19:11:38.482Z,8.67
2022-09-17T19:14:05.427Z,7.10
2022-09-17T19:16:32.694Z,5.77
2022-09-17T19:18:59.617Z,8.77
2022-09-17T19:21:26.573Z,8.00
2022-09-17T19:23:54.259Z,10.97
2022-09-17T19:26:26.131Z,9.70
2022-09-17T19:28:58.007Z,6.87
2022-09-17T19:31:25.828Z,9.30
2022-09-17T19:33:56.314Z,9.57
2022-09-17T19:36:23.353Z,9.43
2022-09-17T19:38:50.316Z,11.30
2022-09-17T19:41:19.779Z,5.67
2022-09-17T19:43:47.354Z,8.30
2022-09-17T19:46:18.156Z,9.87
2022-09-17T19:48:53.866Z,9.97
2022-09-17T19:51:25.105Z,10.30
2022-09-17T19:53:52.865Z,7.13
2022-09-17T19:56:22.837Z,4.97
2022-09-17T19:58:50.033Z,6.90
2022-09-17T20:01:17.554Z,10.93
2022-09-17T20:03:46.328Z,7.67
2022-09-17T20:06:15.799Z,4.43
2022-09-17T20:08:53.437Z,8.30
2022-09-17T20:11:23.055Z,10.87
2022-09-17T20:13:50.566Z,4.87
2022-09-17T20:16:20.276Z,8.73
2022-09-17T20:18:48.070Z,3.93
2022-09-17T20:21:24.109Z,7.40
2022-09-17T20:23:51.620Z,10.87
2022-09-17T20:26:19.118Z,8.60
2022-09-17T20:28:46.885Z,5.90
2022-09-17T20:31:23.055Z,11.87
2022-09-17T20:33:54.559Z,9.30
2022-09-17T20:36:25.357Z,4.43
2022-09-17T20:41:40.031Z,6.17
2022-09-17T20:44:07.725Z,6.67
2022-09-17T20:46:34.680Z,3.93
2022-09-17T20:49:01.716Z,8.47
2022-09-17T20:51:30.289Z,7.87
2022-09-17T20:53:57.876Z,7.80
2022-09-17T20:56:33.612Z,6.43
2022-09-17T20:59:29.495Z,6.30
2022-09-17T21:01:56.505Z,7.60
2022-09-17T21:04:24.215Z,4.47
2022-09-17T21:06:52.881Z,6.27
2022-09-17T21:09:19.948Z,6.97
2022-09-17T21:11:48.440Z,4.83
2022-09-17T21:14:16.160Z,5.20
2022-09-17T21:16:43.644Z,10.53
2022-09-17T21:19:12.202Z,9.80
2022-09-17T21:21:39.127Z,8.53
2022-09-17T21:24:06.921Z,7.07
2022-09-17T21:26:34.540Z,8.57
2022-09-17T21:29:01.445Z,8.23
2022-09-17T21:31:32.774Z,11.80
2022-09-17T21:34:03.571Z,8.00
2022-09-17T21:36:33.361Z,10.87
2022-09-17T21:39:03.089Z,8.50
2022-09-17T21:41:30.451Z,7.40
2022-09-17T21:43:57.366Z,7.00
2022-09-17T21:46:26.522Z,5.73
2022-09-17T21:48:56.059Z,8.17
2022-09-17T21:51:30.563Z,5.03
2022-09-17T21:54:00.289Z,6.77
2022-09-17T21:56:27.964Z,5.30
2022-09-17T21:59:00.279Z,6.27
2022-09-17T22:01:39.938Z,10.00
2022-09-17T22:04:09.156Z,7.97
2022-09-17T22:06:38.298Z,4.57
2022-09-17T22:09:07.155Z,5.73
2022-09-17T22:11:36.631Z,7.90
2022-09-17T22:14:10.927Z,9.40
2022-09-17T22:16:41.337Z,7.67
2022-09-17T22:19:09.963Z,11.40
2022-09-17T22:21:39.998Z,4.73
2022-09-17T22:24:07.121Z,11.00
2022-09-17T22:26:37.480Z,6.77
2022-09-17T22:29:06.775Z,7.40
2022-09-17T22:31:34.328Z,6.07
2022-09-17T22:34:01.625Z,7.03
2022-09-17T22:36:29.253Z,7.00
2022-09-17T22:38:58.456Z,8.60
2022-09-17T22:41:34.503Z,5.97
2022-09-17T22:44:03.881Z,6.77
2022-09-17T22:46:36.496Z,10.20
2022-09-17T22:49:03.570Z,9.20
2022-09-17T22:51:31.306Z,10.47
2022-09-17T22:53:59.218Z,7.43
2022-09-17T22:56:27.976Z,5.23
2022-09-17T22:58:57.100Z,7.07
2022-09-17T23:01:29.007Z,5.50
2022-09-17T23:03:56.334Z,8.50
2022-09-17T23:06:31.940Z,5.47
2022-09-17T23:08:59.338Z,9.87
2022-09-17T23:11:34.785Z,6.10
2022-09-17T23:14:04.380Z,7.10
2022-09-17T23:16:46.338Z,5.83
2022-09-17T23:19:15.773Z,9.13
2022-09-17T23:21:43.380Z,4.20
2022-09-17T23:24:18.376Z,6.33
2022-09-17T23:26:45.228Z,7.53
2022-09-17T23:29:12.124Z,7.00
2022-09-17T23:31:39.726Z,7.67
2022-09-17T23:34:07.110Z,6.60
2022-09-17T23:36:36.747Z,9.40
2022-09-17T23:39:04.815Z,7.97
2022-09-17T23:41:33.935Z,9.73
2022-09-17T23:44:03.143Z,11.73
2022-09-17T23:46:33.160Z,6.37
2022-09-17T23:49:00.653Z,6.10
2022-09-17T23:51:30.866Z,7.00
2022-09-17T23:53:58.402Z,7.50
2022-09-17T23:56:26.599Z,8.70
2022-09-17T23:58:54.758Z,9.23
